Time;durP1;ratioP1;P1;durP2;ratioP2;P2;SDS_P1;SDS_P2;PMS_P1;PMS_P2;Temp;Humidity;BMP_temperature;BMP_pressure;BME280_temperature;BME280_humidity;BME280_pressure;Samples;Min_cycle;Max_cycle;Signal;HPM_P1;HPM_P2
2021/04/10 00:01:41;;;;;;;7.00;6.17;;;11.20;97.50;;;;;;5073255;28;20199;-79
2021/04/10 00:04:09;;;;;;;6.70;6.03;;;11.10;97.70;;;;;;5074235;28;20164;-80
2021/04/10 00:06:34;;;;;;;6.50;5.80;;;11.10;98.30;;;;;;5073749;28;20203;-80
2021/04/10 00:09:00;;;;;;;6.33;5.73;;;11.00;98.20;;;;;;5056225;28;20196;-79
2021/04/10 00:11:27;;;;;;;6.75;5.85;;;11.00;98.60;;;;;;5072882;28;20599;-80
2021/04/10 00:13:53;;;;;;;6.10;5.50;;;11.00;99.10;;;;;;5072775;28;20169;-80
2021/04/10 00:16:19;;;;;;;6.15;5.55;;;10.90;99.30;;;;;;5056446;28;20206;-80
2021/04/10 00:18:44;;;;;;;7.00;5.60;;;11.00;99.80;;;;;;5073100;28;20164;-79
2021/04/10 00:21:10;;;;;;;8.07;6.87;;;10.90;99.90;;;;;;5074050;28;20203;-80
2021/04/10 00:23:42;;;;;;;7.60;6.30;;;10.90;99.90;;;;;;5073718;28;20167;-80
2021/04/10 00:26:10;;;;;;;7.55;6.78;;;10.80;99.90;;;;;;5072905;28;20203;-79
2021/04/10 00:28:36;;;;;;;6.47;5.88;;;10.70;99.90;;;;;;5072448;28;20222;-80
2021/04/10 00:31:08;;;;;;;7.87;6.33;;;10.70;99.90;;;;;;5074058;28;20282;-80
2021/04/10 00:33:41;;;;;;;6.10;5.50;;;10.70;99.90;;;;;;5077048;28;20168;-81
2021/04/10 00:36:08;;;;;;;7.30;5.32;;;10.70;99.90;;;;;;5073828;28;20496;-81
2021/04/10 00:38:35;;;;;;;6.05;5.45;;;10.70;99.90;;;;;;5055269;28;20164;-80
2021/04/10 00:41:01;;;;;;;5.72;5.22;;;10.80;99.90;;;;;;5072281;28;20200;-81
2021/04/10 00:43:29;;;;;;;7.65;6.65;;;10.80;99.90;;;;;;5073744;28;20194;-81
2021/04/10 00:45:55;;;;;;;10.23;6.57;;;10.90;99.90;;;;;;5072149;28;20180;-79
2021/04/10 00:48:21;;;;;;;9.32;5.97;;;10.90;99.90;;;;;;5072540;28;20259;-80
2021/04/10 00:50:48;;;;;;;6.05;5.45;;;10.90;99.90;;;;;;5073103;28;20245;-79
2021/04/10 00:53:17;;;;;;;6.25;5.65;;;10.90;99.90;;;;;;5073240;28;20626;-78
2021/04/10 00:55:46;;;;;;;8.02;7.22;;;10.90;99.90;;;;;;5073392;28;20199;-80
2021/04/10 00:58:12;;;;;;;7.00;6.35;;;10.90;99.90;;;;;;5072863;28;20251;-78
2021/04/10 01:00:39;;;;;;;6.60;6.00;;;11.00;99.90;;;;;;5072974;28;20256;-79
2021/04/10 01:03:08;;;;;;;7.18;6.25;;;11.00;99.90;;;;;;5073183;28;20176;-79
2021/04/10 01:05:38;;;;;;;7.60;6.45;;;11.00;99.90;;;;;;5072502;28;20548;-79
2021/04/10 01:08:04;;;;;;;6.53;5.65;;;11.00;99.90;;;;;;5071451;28;20214;-79
2021/04/10 01:10:32;;;;;;;7.25;6.55;;;11.00;99.90;;;;;;5078093;28;20282;-79
2021/04/10 01:13:25;;;;;;;7.38;6.00;;;11.00;99.90;;;;;;5073016;28;20582;-80
2021/04/10 01:16:03;;;;;;;9.48;7.22;;;11.10;99.90;;;;;;5044507;28;20551;-80
2021/04/10 01:18:42;;;;;;;8.32;7.50;;;11.10;99.90;;;;;;5071375;28;20218;-80
2021/04/10 01:21:27;;;;;;;7.95;7.18;;;11.10;99.90;;;;;;5071567;28;20203;-78
2021/04/10 01:24:07;;;;;;;8.18;6.93;;;11.10;99.90;;;;;;5071575;28;20546;-79
2021/04/10 01:26:57;;;;;;;8.80;7.90;;;11.10;99.90;;;;;;5054398;28;20179;-80
2021/04/10 01:29:28;;;;;;;8.88;8.00;;;11.10;99.90;;;;;;5071412;28;20175;-80
2021/04/10 01:31:55;;;;;;;8.40;6.65;;;11.10;99.90;;;;;;5071405;28;20215;-79
2021/04/10 01:34:34;;;;;;;7.05;6.25;;;11.10;99.90;;;;;;5072401;28;20534;-79
2021/04/10 01:37:08;;;;;;;8.32;7.45;;;11.10;99.90;;;;;;5070911;28;20222;-79
2021/04/10 01:39:37;;;;;;;9.05;8.25;;;11.10;99.90;;;;;;5071231;28;20721;-80
2021/04/10 01:42:05;;;;;;;8.70;7.85;;;11.10;99.90;;;;;;5072519;28;20227;-80
2021/04/10 01:44:31;;;;;;;12.07;8.40;;;11.10;99.90;;;;;;5071904;28;20181;-79
2021/04/10 01:46:59;;;;;;;8.10;6.67;;;11.10;99.90;;;;;;5076080;28;20172;-79
2021/04/10 01:49:29;;;;;;;10.55;8.52;;;11.10;99.90;;;;;;5070964;28;20602;-81
2021/04/10 01:51:57;;;;;;;8.52;7.72;;;11.10;99.90;;;;;;5070791;28;20203;-80
2021/04/10 01:54:23;;;;;;;9.68;8.30;;;11.10;99.90;;;;;;5054302;28;20160;-79
2021/04/10 01:56:53;;;;;;;9.30;8.43;;;11.10;99.90;;;;;;5054319;28;20173;-79
2021/04/10 01:59:29;;;;;;;10.00;8.80;;;11.10;99.90;;;;;;5070267;28;20161;-80
2021/04/10 02:01:58;;;;;;;8.38;7.57;;;11.10;99.90;;;;;;5070866;28;20333;-79
2021/04/10 02:04:36;;;;;;;9.45;8.43;;;11.20;99.90;;;;;;5054013;28;20167;-80
2021/04/10 02:07:05;;;;;;;8.18;7.47;;;11.20;99.90;;;;;;5070327;28;20156;-79
2021/04/10 02:09:33;;;;;;;9.70;8.77;;;11.20;99.90;;;;;;5070705;28;20200;-80
2021/04/10 02:12:12;;;;;;;8.98;8.00;;;11.20;99.90;;;;;;5071906;28;20556;-80
2021/04/10 02:14:48;;;;;;;9.70;8.80;;;11.20;99.90;;;;;;5070761;28;20168;-79
2021/04/10 02:17:18;;;;;;;9.43;8.52;;;11.20;99.90;;;;;;5070176;28;20173;-80
2021/04/10 02:19:51;;;;;;;9.90;8.85;;;11.20;99.90;;;;;;5070749;28;20273;-81
2021/04/10 02:22:17;;;;;;;9.85;8.82;;;11.20;99.90;;;;;;5071086;28;20211;-80
2021/04/10 02:24:44;;;;;;;9.55;8.60;;;11.20;99.90;;;;;;5075197;28;20551;-82
2021/04/10 02:27:11;;;;;;;9.38;8.65;;;11.20;99.90;;;;;;5053586;28;20234;-80
2021/04/10 02:29:53;;;;;;;10.32;8.90;;;11.20;99.90;;;;;;5070610;28;20206;-81
2021/04/10 02:32:34;;;;;;;10.98;9.77;;;11.10;99.90;;;;;;5071682;28;20187;-80
2021/04/10 02:35:16;;;;;;;12.13;9.05;;;11.10;99.90;;;;;;5070367;28;20168;-80
2021/04/10 02:37:44;;;;;;;10.13;9.25;;;11.10;99.90;;;;;;5070028;28;20204;-79
2021/04/10 02:40:18;;;;;;;10.20;9.30;;;11.10;99.90;;;;;;5070579;28;20172;-80
2021/04/10 02:42:47;;;;;;;9.05;8.25;;;11.10;99.90;;;;;;5071547;28;20192;-79
2021/04/10 02:45:23;;;;;;;11.27;10.38;;;11.10;99.90;;;;;;5053604;28;20164;-80
2021/04/10 02:47:50;;;;;;;9.60;8.63;;;11.10;99.90;;;;;;5069874;28;20179;-80
2021/04/10 02:50:21;;;;;;;9.10;8.20;;;11.10;99.90;;;;;;5070163;28;20242;-80
2021/04/10 02:52:51;;;;;;;10.98;9.90;;;11.10;99.90;;;;;;5071256;28;20207;-80
2021/04/10 02:55:37;;;;;;;9.82;8.85;;;11.10;99.90;;;;;;5070473;28;20157;-79
2021/04/10 02:58:10;;;;;;;13.00;9.15;;;11.00;99.90;;;;;;5120476;23;20232;-79
2021/04/10 03:00:40;;;;;;;9.73;8.77;;;11.10;99.90;;;;;;5137100;28;20171;-78
2021/04/10 03:03:08;;;;;;;10.70;9.60;;;11.00;99.90;;;;;;5137727;27;20144;-78
2021/04/10 03:05:40;;;;;;;11.13;10.02;;;11.00;99.90;;;;;;5136633;27;20159;-78
2021/04/10 03:08:08;;;;;;;11.32;10.23;;;11.00;99.90;;;;;;5136449;28;20191;-78
2021/04/10 03:10:35;;;;;;;8.90;8.10;;;11.00;99.90;;;;;;5136697;28;20263;-79
2021/04/10 03:13:05;;;;;;;10.20;9.20;;;11.00;99.90;;;;;;5140075;28;20207;-79
2021/04/10 03:15:32;;;;;;;9.93;8.25;;;11.00;99.90;;;;;;5140579;27;20159;-79
2021/04/10 03:17:59;;;;;;;10.07;9.07;;;11.00;99.90;;;;;;5122292;28;20179;-80
2021/04/10 03:20:29;;;;;;;12.45;10.85;;;11.00;99.90;;;;;;5135901;28;20194;-79
2021/04/10 03:23:00;;;;;;;11.20;9.50;;;11.00;99.90;;;;;;5120575;28;20175;-80
2021/04/10 03:25:33;;;;;;;10.02;9.13;;;11.00;99.90;;;;;;5136186;28;20166;-78
2021/04/10 03:28:03;;;;;;;10.10;9.20;;;10.90;99.90;;;;;;5122077;28;20207;-80
2021/04/10 03:30:29;;;;;;;9.90;9.00;;;11.00;99.90;;;;;;5138991;28;20209;-79
2021/04/10 03:32:55;;;;;;;9.63;8.20;;;10.90;99.90;;;;;;5140399;27;20196;-79
2021/04/10 03:35:28;;;;;;;9.35;8.55;;;10.90;99.90;;;;;;5142243;28;20163;-80
2021/04/10 03:37:59;;;;;;;8.88;8.02;;;10.90;99.90;;;;;;5124940;27;20190;-79
2021/04/10 03:40:29;;;;;;;9.57;8.57;;;10.90;99.90;;;;;;5141352;28;20151;-80
2021/04/10 03:42:55;;;;;;;10.23;9.23;;;10.90;99.90;;;;;;5141938;27;20175;-80
2021/04/10 03:45:27;;;;;;;10.10;9.10;;;10.90;99.90;;;;;;5141918;27;20135;-80
2021/04/10 03:47:56;;;;;;;8.82;7.82;;;10.90;99.90;;;;;;5139576;27;20191;-79
2021/04/10 03:50:26;;;;;;;9.93;8.90;;;10.90;99.90;;;;;;5106778;28;20186;-80
2021/04/10 03:52:55;;;;;;;10.75;9.75;;;10.90;99.90;;;;;;5138401;27;20175;-79
2021/04/10 03:55:21;;;;;;;10.43;9.47;;;10.90;99.90;;;;;;5140113;28;20151;-78
2021/04/10 03:57:51;;;;;;;10.02;9.13;;;10.80;99.90;;;;;;5141217;27;20616;-79
2021/04/10 04:00:17;;;;;;;10.13;9.32;;;10.80;99.90;;;;;;5140772;28;20194;-79
2021/04/10 04:02:51;;;;;;;10.60;9.52;;;10.80;99.90;;;;;;5140963;27;20166;-79
2021/04/10 04:05:17;;;;;;;10.80;9.83;;;10.80;99.90;;;;;;5141091;27;20151;-79
2021/04/10 04:07:42;;;;;;;10.70;9.70;;;10.80;99.90;;;;;;5140733;27;20596;-80
2021/04/10 04:10:08;;;;;;;10.90;9.90;;;10.80;99.90;;;;;;5133880;28;20205;-80
2021/04/10 04:12:34;;;;;;;13.00;10.27;;;10.80;99.90;;;;;;5113807;28;20191;-80
2021/04/10 04:15:00;;;;;;;11.40;10.40;;;10.80;99.90;;;;;;5133112;28;20178;-80
2021/04/10 04:17:26;;;;;;;10.60;9.60;;;10.70;99.90;;;;;;5131885;28;20191;-80
2021/04/10 04:19:54;;;;;;;10.07;8.73;;;10.70;99.90;;;;;;5132095;28;20182;-80
2021/04/10 04:22:20;;;;;;;11.90;10.57;;;10.70;99.90;;;;;;5131943;28;20175;-79
2021/04/10 04:24:46;;;;;;;8.10;7.30;;;10.70;99.90;;;;;;5132883;28;20175;-80
2021/04/10 04:27:11;;;;;;;10.50;9.50;;;10.60;99.90;;;;;;5114429;28;20175;-80
2021/04/10 04:29:37;;;;;;;10.50;9.50;;;10.60;99.90;;;;;;5130489;28;20206;-79
2021/04/10 04:32:03;;;;;;;11.23;10.13;;;10.60;99.90;;;;;;5131628;28;20630;-79
2021/04/10 04:34:29;;;;;;;9.63;8.73;;;10.60;99.90;;;;;;5132321;27;20175;-79
2021/04/10 04:36:55;;;;;;;10.27;9.30;;;10.60;99.90;;;;;;5135775;28;20159;-79
2021/04/10 04:39:20;;;;;;;13.70;9.90;;;10.50;99.90;;;;;;5138917;28;20193;-79
2021/04/10 04:41:46;;;;;;;12.60;11.30;;;10.50;99.90;;;;;;5131537;28;20258;-80
2021/04/10 04:44:12;;;;;;;11.30;10.10;;;10.50;99.90;;;;;;5130107;28;20190;-80
2021/04/10 04:46:37;;;;;;;11.33;10.23;;;10.50;99.90;;;;;;5128884;28;20206;-80
2021/04/10 04:49:03;;;;;;;11.40;10.40;;;10.50;99.90;;;;;;5127807;28;20603;-79
2021/04/10 04:51:32;;;;;;;11.20;10.20;;;10.50;99.90;;;;;;5108350;28;20225;-79
2021/04/10 04:53:58;;;;;;;11.23;10.05;;;10.50;99.90;;;;;;5122852;28;20245;-79
2021/04/10 04:56:24;;;;;;;10.93;9.67;;;10.50;99.90;;;;;;5106194;28;20170;-79
2021/04/10 04:58:49;;;;;;;9.87;8.90;;;10.50;99.90;;;;;;5127052;28;20516;-80
2021/04/10 05:01:20;;;;;;;10.25;9.35;;;10.50;99.90;;;;;;5124922;28;20172;-80
2021/04/10 05:03:48;;;;;;;10.10;9.15;;;10.50;99.90;;;;;;5108453;28;20179;-79
2021/04/10 05:06:14;;;;;;;13.25;9.82;;;10.50;99.90;;;;;;5126956;28;20270;-79
2021/04/10 05:08:39;;;;;;;11.10;10.10;;;10.60;99.90;;;;;;5125810;28;20179;-80
2021/04/10 05:11:05;;;;;;;11.43;10.33;;;10.50;99.90;;;;;;5106444;28;20746;-80
2021/04/10 05:13:31;;;;;;;12.10;10.73;;;10.60;99.90;;;;;;5126016;27;20151;-79
2021/04/10 05:16:00;;;;;;;9.50;8.57;;;10.60;99.90;;;;;;5139764;27;20577;-80
2021/04/10 05:18:26;;;;;;;9.63;8.63;;;10.60;99.90;;;;;;5139566;28;20186;-79
2021/04/10 05:20:54;;;;;;;13.33;10.13;;;10.60;99.90;;;;;;5138326;28;20193;-79
2021/04/10 05:23:24;;;;;;;11.45;9.52;;;10.60;99.90;;;;;;5138349;27;20151;-79
2021/04/10 05:25:51;;;;;;;10.57;9.55;;;10.60;99.90;;;;;;5137815;27;20243;-81
2021/04/10 05:28:17;;;;;;;12.63;10.20;;;10.60;99.90;;;;;;5138165;28;20199;-79
2021/04/10 05:30:43;;;;;;;12.38;11.13;;;10.60;99.90;;;;;;5138748;28;20206;-77
2021/04/10 05:33:09;;;;;;;14.30;12.80;;;10.60;99.90;;;;;;5132945;27;20167;-80
2021/04/10 05:35:35;;;;;;;14.50;13.20;;;10.60;99.90;;;;;;5125160;28;20193;-79
2021/04/10 05:38:02;;;;;;;16.27;13.77;;;10.60;99.90;;;;;;5126681;28;20183;-80
2021/04/10 05:40:28;;;;;;;15.30;13.90;;;10.60;99.90;;;;;;5127017;28;20163;-80
2021/04/10 05:42:53;;;;;;;15.05;13.55;;;10.60;99.90;;;;;;5127530;28;20167;-79
2021/04/10 05:45:19;;;;;;;16.10;14.63;;;10.70;99.90;;;;;;5126703;28;20175;-80
2021/04/10 05:47:48;;;;;;;15.68;14.10;;;10.60;99.90;;;;;;5128045;28;20191;-79
2021/04/10 05:50:18;;;;;;;16.00;14.48;;;10.70;99.90;;;;;;5125975;28;20201;-79
2021/04/10 05:52:44;;;;;;;17.27;15.68;;;10.70;99.90;;;;;;5134863;28;20162;-79
2021/04/10 05:55:10;;;;;;;18.77;16.90;;;10.80;99.90;;;;;;5131075;27;20179;-79
2021/04/10 05:57:38;;;;;;;20.13;18.25;;;10.80;99.90;;;;;;5125082;28;20194;-79
2021/04/10 06:00:08;;;;;;;24.27;21.88;;;10.90;99.90;;;;;;5125714;28;20147;-79
2021/04/10 06:02:38;;;;;;;18.33;16.60;;;10.90;99.90;;;;;;5125454;28;20173;-79
2021/04/10 06:05:08;;;;;;;20.73;18.73;;;10.80;99.90;;;;;;5124211;28;20710;-79
2021/04/10 06:07:34;;;;;;;23.30;20.17;;;10.90;99.90;;;;;;5130638;28;20217;-79
2021/04/10 06:10:00;;;;;;;20.83;18.88;;;10.90;99.90;;;;;;5125105;28;20238;-79
2021/04/10 06:12:26;;;;;;;18.50;16.70;;;10.80;99.90;;;;;;5123151;28;20162;-78
2021/04/10 06:14:58;;;;;;;20.58;18.60;;;10.90;99.90;;;;;;5124484;28;20162;-79
2021/04/10 06:17:24;;;;;;;19.83;17.90;;;10.90;99.90;;;;;;5124495;28;20159;-79
2021/04/10 06:19:55;;;;;;;19.60;17.77;;;10.90;99.90;;;;;;5124321;28;20199;-79
2021/04/10 06:22:21;;;;;;;21.15;18.95;;;10.90;99.90;;;;;;5123809;28;20174;-79
2021/04/10 06:24:47;;;;;;;20.43;18.53;;;11.00;99.90;;;;;;5123798;28;20662;-79
2021/04/10 06:27:13;;;;;;;21.03;18.93;;;11.00;99.90;;;;;;5123220;28;20602;-79
2021/04/10 06:29:39;;;;;;;19.67;17.73;;;11.00;99.90;;;;;;5126894;28;20621;-79
2021/04/10 06:32:06;;;;;;;17.57;15.87;;;11.00;99.90;;;;;;5129536;28;20187;-80
2021/04/10 06:34:39;;;;;;;17.02;15.38;;;11.10;99.90;;;;;;5122084;28;21134;-79
2021/04/10 06:37:08;;;;;;;19.70;17.83;;;11.20;99.90;;;;;;5120549;28;20175;-79
2021/04/10 06:39:34;;;;;;;19.42;17.65;;;11.20;99.90;;;;;;5104310;28;20166;-78
2021/04/10 06:42:00;;;;;;;19.53;17.60;;;11.30;99.90;;;;;;5120601;28;20163;-79
2021/04/10 06:44:26;;;;;;;21.65;19.60;;;11.30;99.90;;;;;;5119625;28;20553;-78
2021/04/10 06:46:55;;;;;;;21.83;19.73;;;11.40;99.90;;;;;;5115404;28;20175;-80
2021/04/10 06:49:24;;;;;;;20.65;18.77;;;11.40;99.90;;;;;;5116502;28;20273;-78
2021/04/10 06:51:51;;;;;;;19.30;17.40;;;11.50;99.90;;;;;;5118299;28;20167;-79
2021/04/10 06:54:20;;;;;;;19.85;17.85;;;11.60;99.90;;;;;;5118445;28;20514;-79
2021/04/10 06:57:00;;;;;;;19.35;17.45;;;11.70;99.90;;;;;;5118639;28;20171;-78
2021/04/10 06:59:50;;;;;;;18.25;16.48;;;11.80;99.90;;;;;;5098082;28;20202;-79
2021/04/10 07:02:18;;;;;;;19.88;17.88;;;11.90;99.90;;;;;;5111070;28;20182;-78
2021/04/10 07:04:45;;;;;;;17.10;15.60;;;12.00;99.90;;;;;;5114641;28;20557;-80
2021/04/10 07:07:11;;;;;;;20.15;18.25;;;12.10;99.90;;;;;;5115350;28;20525;-80
2021/04/10 07:09:40;;;;;;;19.23;17.42;;;12.30;99.90;;;;;;5120246;28;20268;-79
2021/04/10 07:12:09;;;;;;;18.85;16.95;;;12.40;99.90;;;;;;5114136;28;20512;-80
2021/04/10 07:14:35;;;;;;;17.95;16.17;;;12.50;99.90;;;;;;5115157;28;20244;-80
2021/04/10 07:17:02;;;;;;;14.25;13.02;;;12.60;99.90;;;;;;5115928;28;20166;-80
2021/04/10 07:19:29;;;;;;;16.15;14.35;;;12.70;99.90;;;;;;5113535;28;20275;-77
2021/04/10 07:22:24;;;;;;;15.43;13.98;;;12.70;99.90;;;;;;5112919;28;20171;-78
2021/04/10 07:24:52;;;;;;;15.13;13.65;;;12.70;99.90;;;;;;5090222;28;20189;-78
2021/04/10 07:27:19;;;;;;;14.80;13.38;;;12.70;99.90;;;;;;5113141;28;20159;-79
2021/04/10 07:29:50;;;;;;;13.73;12.38;;;12.70;99.90;;;;;;5112929;28;20633;-79
2021/04/10 07:32:28;;;;;;;13.85;12.55;;;12.70;99.90;;;;;;5114342;28;20167;-79
2021/04/10 07:34:57;;;;;;;14.95;12.05;;;12.80;99.90;;;;;;5095211;28;20170;-79
2021/04/10 07:37:28;;;;;;;15.32;13.25;;;12.80;99.90;;;;;;5113429;28;20155;-78
2021/04/10 07:39:54;;;;;;;12.88;11.55;;;12.90;99.90;;;;;;5112276;28;20183;-78
2021/04/10 07:42:27;;;;;;;11.85;10.85;;;12.90;99.90;;;;;;5114118;28;20175;-78
2021/04/10 07:44:53;;;;;;;13.45;12.30;;;13.00;99.90;;;;;;5096694;28;20175;-78
2021/04/10 07:47:35;;;;;;;14.55;13.25;;;13.00;99.90;;;;;;5118311;28;20270;-78
2021/04/10 07:50:17;;;;;;;13.85;12.55;;;13.00;99.90;;;;;;5114558;28;20182;-78
2021/04/10 07:52:45;;;;;;;12.30;11.10;;;13.00;99.90;;;;;;5112914;28;20174;-78
2021/04/10 07:55:38;;;;;;;12.40;10.07;;;12.90;99.90;;;;;;5114502;28;20639;-78
2021/04/10 07:58:24;;;;;;;13.55;12.02;;;13.00;99.90;;;;;;5117342;28;20198;-78
2021/04/10 08:00:51;;;;;;;12.55;11.30;;;13.00;99.90;;;;;;5103826;28;20199;-78
2021/04/10 08:03:31;;;;;;;13.05;11.88;;;13.00;99.90;;;;;;5119468;28;20230;-79
2021/04/10 08:06:07;;;;;;;13.07;11.88;;;13.10;99.90;;;;;;5138436;28;20649;-79
2021/04/10 08:08:42;;;;;;;14.30;12.55;;;13.20;99.90;;;;;;5139341;27;20186;-79
2021/04/10 08:11:07;;;;;;;13.93;12.73;;;13.20;99.90;;;;;;5140044;27;20202;-78
2021/04/10 08:13:33;;;;;;;13.13;11.93;;;13.30;99.90;;;;;;5138630;28;20174;-79
2021/04/10 08:16:19;;;;;;;16.23;12.80;;;13.40;99.90;;;;;;5139539;27;20580;-78
2021/04/10 08:18:48;;;;;;;14.98;13.63;;;13.40;99.90;;;;;;5137160;28;20602;-77
2021/04/10 08:21:15;;;;;;;16.00;14.60;;;13.50;99.90;;;;;;5138280;27;20165;-79
2021/04/10 08:23:41;;;;;;;14.88;13.43;;;13.40;99.90;;;;;;5139343;28;20167;-78
2021/04/10 08:26:13;;;;;;;14.30;13.00;;;13.40;99.90;;;;;;5138939;28;20140;-78
2021/04/10 08:28:39;;;;;;;12.88;11.65;;;13.50;99.90;;;;;;5139111;27;20588;-78
2021/04/10 08:31:05;;;;;;;13.43;12.30;;;13.50;99.90;;;;;;5139774;27;20190;-78
2021/04/10 08:33:33;;;;;;;13.30;11.90;;;13.70;99.90;;;;;;5104080;28;20178;-79
2021/04/10 08:36:03;;;;;;;11.27;10.18;;;13.70;99.90;;;;;;5137616;28;20553;-79
2021/04/10 08:38:32;;;;;;;14.15;12.73;;;13.70;99.90;;;;;;5138771;28;20230;-79
2021/04/10 08:41:03;;;;;;;13.70;11.55;;;13.80;99.90;;;;;;5139116;27;20222;-78
2021/04/10 08:43:31;;;;;;;12.25;11.10;;;13.80;99.90;;;;;;5138527;28;20151;-78
2021/04/10 08:45:59;;;;;;;15.02;13.43;;;13.90;99.90;;;;;;5138648;28;20167;-79
2021/04/10 08:48:27;;;;;;;13.80;12.52;;;14.00;99.90;;;;;;5138520;28;20182;-80
2021/04/10 08:50:57;;;;;;;14.32;12.77;;;14.00;99.90;;;;;;5138338;28;20217;-79
2021/04/10 08:53:39;;;;;;;16.48;14.80;;;14.10;99.90;;;;;;5137967;28;20174;-80
2021/04/10 08:56:10;;;;;;;13.70;12.60;;;14.20;99.90;;;;;;5138413;28;20182;-79
2021/04/10 08:58:39;;;;;;;11.80;10.73;;;14.40;99.90;;;;;;5121873;28;20214;-79
2021/04/10 09:01:08;;;;;;;12.23;11.13;;;14.50;99.90;;;;;;5139687;28;20219;-79
2021/04/10 09:03:46;;;;;;;11.63;10.50;;;14.60;99.90;;;;;;5139082;28;20162;-78
2021/04/10 09:06:13;;;;;;;13.02;11.82;;;14.70;99.90;;;;;;5138102;28;20168;-79
2021/04/10 09:08:39;;;;;;;14.88;13.48;;;14.80;99.90;;;;;;5137381;28;20199;-78
2021/04/10 09:11:05;;;;;;;15.13;13.73;;;14.70;99.90;;;;;;5139840;28;20213;-79
2021/04/10 09:13:39;;;;;;;12.80;11.50;;;14.70;99.90;;;;;;5121736;27;20170;-79
2021/04/10 09:16:46;;;;;;;13.18;11.95;;;14.60;99.90;;;;;;5138614;27;20158;-79
2021/04/10 09:19:17;;;;;;;13.05;11.95;;;14.70;99.90;;;;;;5118204;28;20185;-79
2021/04/10 09:21:44;;;;;;;14.18;12.93;;;14.80;99.90;;;;;;5138241;28;20263;-79
2021/04/10 09:24:21;;;;;;;13.15;11.85;;;14.80;99.90;;;;;;5137549;27;20242;-79
2021/04/10 09:27:19;;;;;;;13.75;12.55;;;14.80;99.90;;;;;;5137461;27;20170;-79
2021/04/10 09:29:51;;;;;;;13.77;12.40;;;14.90;99.90;;;;;;5102379;28;20195;-78
2021/04/10 09:32:30;;;;;;;12.95;11.63;;;15.00;99.90;;;;;;5116551;28;20407;-80
2021/04/10 09:35:02;;;;;;;11.90;10.85;;;15.00;99.90;;;;;;5134044;27;20205;-79
2021/04/10 09:37:28;;;;;;;10.90;9.90;;;15.20;99.90;;;;;;5133729;28;20152;-79
2021/04/10 09:39:56;;;;;;;10.80;9.93;;;15.30;99.90;;;;;;5112188;28;20198;-80
2021/04/10 09:42:37;;;;;;;10.40;9.48;;;15.50;99.90;;;;;;5105033;28;20167;-78
2021/04/10 09:45:11;;;;;;;11.27;10.38;;;15.50;99.90;;;;;;5112993;28;20171;-78
2021/04/10 09:48:01;;;;;;;10.23;9.43;;;15.60;99.90;;;;;;5110764;28;20186;-78
2021/04/10 09:50:27;;;;;;;9.73;9.02;;;15.60;99.90;;;;;;5111181;28;20229;-79
2021/04/10 09:53:04;;;;;;;9.67;8.70;;;15.70;99.90;;;;;;5111263;28;20179;-78
2021/04/10 09:55:32;;;;;;;10.50;9.55;;;15.80;99.90;;;;;;5112431;28;20210;-78
2021/04/10 09:58:04;;;;;;;10.23;9.43;;;15.70;99.90;;;;;;5110096;28;20297;-80
2021/04/10 10:00:35;;;;;;;11.15;10.25;;;15.70;99.90;;;;;;5111059;28;20167;-79
2021/04/10 10:03:03;;;;;;;10.03;9.23;;;15.60;99.90;;;;;;5110933;28;20252;-78
2021/04/10 10:05:46;;;;;;;8.68;7.07;;;15.50;99.90;;;;;;5112270;28;20655;-77
2021/04/10 10:08:17;;;;;;;8.20;7.50;;;15.40;99.90;;;;;;5073275;28;20628;-78
2021/04/10 10:10:45;;;;;;;10.57;9.60;;;15.30;99.90;;;;;;5092486;28;20191;-78
2021/04/10 10:13:19;;;;;;;8.23;7.53;;;15.10;99.90;;;;;;5075612;28;20258;-80
2021/04/10 10:15:48;;;;;;;8.75;7.95;;;14.90;99.90;;;;;;5101427;28;20254;-79
2021/04/10 10:18:27;;;;;;;8.13;7.38;;;14.70;99.90;;;;;;5091647;28;20188;-79
2021/04/10 10:21:05;;;;;;;10.93;9.93;;;14.60;99.90;;;;;;5091316;28;20229;-79
2021/04/10 10:23:36;;;;;;;9.63;8.82;;;14.40;99.90;;;;;;5101017;28;20223;-79
2021/04/10 10:26:07;;;;;;;9.65;8.85;;;14.20;99.90;;;;;;5093859;28;20171;-79
2021/04/10 10:28:35;;;;;;;9.15;8.27;;;14.10;99.90;;;;;;5110426;28;20199;-79
2021/04/10 10:31:21;;;;;;;10.30;9.50;;;14.00;99.90;;;;;;5102498;28;20720;-79
2021/04/10 10:33:49;;;;;;;9.23;8.43;;;13.80;99.90;;;;;;5091675;28;20159;-80
2021/04/10 10:36:16;;;;;;;9.32;8.45;;;13.60;99.90;;;;;;5109034;28;20170;-79
2021/04/10 10:38:44;;;;;;;10.30;8.93;;;13.50;99.90;;;;;;5101351;28;20243;-79
2021/04/10 10:41:11;;;;;;;8.60;7.78;;;13.30;99.90;;;;;;5103488;28;20228;-79
2021/04/10 10:43:37;;;;;;;8.85;8.05;;;13.20;99.90;;;;;;5111347;28;20178;-79
2021/04/10 10:46:05;;;;;;;9.90;9.02;;;13.10;99.90;;;;;;5111895;28;20186;-80
2021/04/10 10:48:41;;;;;;;7.25;6.57;;;13.10;99.90;;;;;;5110456;28;20277;-79
2021/04/10 10:51:07;;;;;;;7.72;7.13;;;13.00;99.90;;;;;;5113022;28;20250;-79
2021/04/10 10:53:36;;;;;;;8.50;7.70;;;13.00;99.90;;;;;;5112224;28;20265;-80
2021/04/10 10:56:17;;;;;;;7.57;6.88;;;12.90;99.90;;;;;;5107794;28;20195;-79
2021/04/10 10:58:54;;;;;;;7.30;6.25;;;12.90;99.90;;;;;;5090997;28;20192;-80
2021/04/10 11:01:23;;;;;;;7.07;6.47;;;12.90;99.90;;;;;;5090053;28;20198;-80
2021/04/10 11:04:02;;;;;;;6.63;5.93;;;12.90;99.90;;;;;;5090137;28;20171;-79
2021/04/10 11:06:35;;;;;;;9.20;7.00;;;13.00;99.90;;;;;;5090907;28;20192;-79
2021/04/10 11:09:04;;;;;;;6.60;5.90;;;13.00;99.90;;;;;;5091284;28;20541;-79
2021/04/10 11:11:42;;;;;;;7.53;6.82;;;13.00;99.90;;;;;;5091412;28;20234;-79
2021/04/10 11:14:09;;;;;;;8.25;7.40;;;13.00;99.90;;;;;;5091386;28;20175;-79
2021/04/10 11:16:49;;;;;;;6.95;6.38;;;13.10;99.90;;;;;;5091248;28;20588;-80
2021/04/10 11:19:35;;;;;;;7.20;6.50;;;13.10;99.90;;;;;;5090097;28;20183;-80
2021/04/10 11:22:04;;;;;;;7.15;5.97;;;13.10;99.90;;;;;;5090128;28;20167;-79
2021/04/10 11:24:44;;;;;;;8.35;7.55;;;13.10;99.90;;;;;;5091216;28;20196;-79
2021/04/10 11:27:14;;;;;;;7.53;6.78;;;13.20;99.90;;;;;;5074225;28;20175;-79
2021/04/10 11:30:08;;;;;;;7.93;7.22;;;13.20;99.90;;;;;;5092744;28;20255;-79
2021/04/10 11:32:40;;;;;;;6.90;6.20;;;13.20;99.90;;;;;;5112181;28;20174;-79
2021/04/10 11:35:17;;;;;;;10.07;9.18;;;13.30;99.90;;;;;;5114297;28;20174;-80
2021/04/10 11:37:54;;;;;;;9.82;8.77;;;13.20;99.90;;;;;;5114615;28;20676;-79
2021/04/10 11:40:29;;;;;;;8.40;7.15;;;13.10;99.90;;;;;;5097113;28;20559;-81
2021/04/10 11:43:00;;;;;;;9.15;8.25;;;13.10;99.90;;;;;;5115401;28;20162;-81
2021/04/10 11:45:38;;;;;;;9.18;8.38;;;13.00;99.90;;;;;;5115346;28;20519;-81
2021/04/10 11:48:16;;;;;;;6.72;6.13;;;13.00;99.90;;;;;;5114610;28;20193;-78
2021/04/10 11:50:47;;;;;;;10.60;8.93;;;13.00;99.90;;;;;;5113581;28;20195;-79
2021/04/10 11:53:16;;;;;;;10.93;9.93;;;13.00;99.90;;;;;;5113769;28;20177;-80
2021/04/10 11:55:45;;;;;;;12.77;11.55;;;12.90;99.90;;;;;;5114860;28;20159;-79
2021/04/10 11:58:11;;;;;;;9.30;8.50;;;12.90;99.90;;;;;;5114356;28;20187;-80
2021/04/10 12:00:37;;;;;;;12.23;11.03;;;12.90;99.90;;;;;;5113673;28;20171;-80
2021/04/10 12:03:20;;;;;;;11.70;10.50;;;12.80;99.90;;;;;;5114875;28;20556;-81
2021/04/10 12:05:46;;;;;;;10.27;9.27;;;12.70;99.90;;;;;;5118930;28;20574;-80
2021/04/10 12:08:12;;;;;;;9.87;8.87;;;12.60;99.90;;;;;;5114237;28;20654;-79
2021/04/10 12:10:46;;;;;;;9.63;8.73;;;12.60;99.90;;;;;;5114478;28;20207;-79
2021/04/10 12:13:12;;;;;;;11.13;9.65;;;12.50;99.90;;;;;;5096510;28;20219;-80
2021/04/10 12:15:39;;;;;;;11.63;10.53;;;12.50;99.90;;;;;;5113134;28;20539;-80
2021/04/10 12:18:08;;;;;;;10.45;9.57;;;12.50;99.90;;;;;;5114435;28;20547;-79
2021/04/10 12:20:34;;;;;;;9.48;8.32;;;12.50;99.90;;;;;;5114047;28;20544;-80
2021/04/10 12:23:00;;;;;;;11.43;10.20;;;12.50;99.90;;;;;;5098073;28;20199;-80
2021/04/10 12:25:26;;;;;;;11.00;9.88;;;12.50;99.90;;;;;;5116949;28;20166;-79
2021/04/10 12:27:52;;;;;;;10.10;9.10;;;12.40;99.90;;;;;;5110025;28;20694;-79
2021/04/10 12:30:18;;;;;;;9.17;7.97;;;12.40;99.90;;;;;;5082622;28;20621;-79
2021/04/10 12:32:47;;;;;;;9.20;8.40;;;12.30;99.90;;;;;;5092932;28;20574;-79
2021/04/10 12:35:13;;;;;;;8.70;7.82;;;12.20;99.90;;;;;;5095000;28;20191;-79
2021/04/10 12:37:39;;;;;;;9.32;8.52;;;12.20;99.90;;;;;;5110013;28;20214;-79
2021/04/10 12:40:06;;;;;;;12.37;11.07;;;12.10;99.90;;;;;;5112828;28;20171;-78
2021/04/10 12:42:33;;;;;;;10.52;9.43;;;12.10;99.90;;;;;;5115108;28;20649;-79
2021/04/10 12:45:04;;;;;;;9.35;8.45;;;12.10;99.90;;;;;;5111854;28;20177;-79
2021/04/10 12:47:29;;;;;;;9.70;8.80;;;12.20;99.90;;;;;;5112513;28;20269;-80
2021/04/10 12:49:55;;;;;;;11.30;9.20;;;12.20;99.90;;;;;;5112742;28;20273;-81
2021/04/10 12:52:22;;;;;;;8.70;7.90;;;12.20;99.90;;;;;;5112971;28;20597;-80